Time,TemperatureF,DewpointF,PressureIn,WindDirection,WindDirectionDegrees,WindSpeedMPH,WindSpeedGustMPH,Humidity,HourlyPrecipIn,Conditions,Clouds,dailyrainin,SoftwareType,DateUTC
2013-07-03 00:01:00,60.1,60.1,30.22,ENE,67,0.0,2.0,100,0.00,,,0.00,WeatherCatV1.15B25,2013-07-03 04:01:00,
2013-07-03 00:02:00,60.2,60.2,30.22,ENE,67,0.0,2.0,100,0.00,,,0.00,WeatherCatV1.15B25,2013-07-03 04:02:00,
2013-07-03 00:03:00,60.1,60.1,30.23,ENE,67,0.0,1.0,100,0.00,,,0.00,WeatherCatV1.15B25,2013-07-03 04:03:00,
2013-07-03 00:08:00,60.2,60.2,30.22,ENE,67,1.0,1.0,100,0.00,,,0.00,WeatherCatV1.15B25,2013-07-03 04:08:00,
2013-07-03 00:13:00,60.1,60.1,30.22,ENE,67,0.0,1.0,100,0.00,,,0.00,WeatherCatV1.15B25,2013-07-03 04:13:00,
2013-07-03 00:18:00,60.1,60.1,30.22,ENE,67,0.0,2.0,100,0.00,,,0.00,WeatherCatV1.15B25,2013-07-03 04:18:00,
2013-07-03 00:20:00,60.1,60.1,30.22,ENE,67,0.0,0.0,100,0.00,,,0.00,WeatherCatV1.15B25,2013-07-03 04:20:00,
2013-07-03 00:25:00,60.1,60.1,30.22,ENE,67,0.0,2.0,100,0.00,,,0.00,WeatherCatV1.15B25,2013-07-03 04:25:00,
2013-07-03 00:30:00,60.1,60.1,30.22,ENE,57,1.0,2.0,100,0.00,,,0.00,WeatherCatV1.15B25,2013-07-03 04:30:00,
2013-07-03 00:35:00,60.1,60.1,30.22,ENE,57,0.0,1.0,100,0.00,,,0.00,WeatherCatV1.15B25,2013-07-03 04:35:00,
2013-07-03 00:40:00,60.3,60.3,30.21,ENE,57,0.0,2.0,100,0.00,,,0.00,WeatherCatV1.15B25,2013-07-03 04:40:00,
2013-07-03 00:45:00,60.3,60.3,30.22,ENE,57,0.0,0.0,100,0.00,,,0.00,WeatherCatV1.15B25,2013-07-03 04:45:00,
2013-07-03 00:50:00,60.3,60.3,30.21,ENE,57,0.0,0.0,100,0.00,,,0.00,WeatherCatV1.15B25,2013-07-03 04:50:00,
2013-07-03 00:55:00,60.3,60.3,30.21,ENE,57,0.0,0.0,100,0.00,,,0.00,WeatherCatV1.15B25,2013-07-03 04:55:00,
2013-07-03 01:00:00,60.3,60.3,30.21,ENE,57,0.0,4.0,100,0.00,,,0.00,WeatherCatV1.15B25,2013-07-03 05:00:00,
2013-07-03 01:05:00,60.4,60.4,30.21,ENE,57,0.0,0.0,100,0.00,,,0.00,WeatherCatV1.15B25,2013-07-03 05:05:00,
2013-07-03 01:10:00,60.4,60.4,30.21,ENE,59,0.0,0.0,100,0.00,,,0.00,WeatherCatV1.15B25,2013-07-03 05:10:00,
2013-07-03 01:15:00,60.4,60.4,30.20,ENE,59,0.0,2.0,100,0.00,,,0.00,WeatherCatV1.15B25,2013-07-03 05:15:00,
2013-07-03 01:20:00,60.4,60.4,30.20,ENE,59,0.0,1.0,100,0.00,,,0.00,WeatherCatV1.15B25,2013-07-03 05:20:00,
2013-07-03 01:25:00,60.4,60.4,30.20,ENE,59,0.0,0.0,100,0.00,,,0.00,WeatherCatV1.15B25,2013-07-03 05:25:00,
2013-07-03 01:30:00,60.3,60.3,30.20,ENE,59,0.0,0.0,100,0.00,,,0.00,WeatherCatV1.15B25,2013-07-03 05:30:00,
2013-07-03 01:35:00,60.3,60.3,30.19,ENE,59,0.0,0.0,100,0.00,,,0.00,WeatherCatV1.15B25,2013-07-03 05:35:00,
2013-07-03 01:40:00,60.5,60.5,30.20,ENE,59,0.0,0.0,100,0.00,,,0.00,WeatherCatV1.15B25,2013-07-03 05:40:00,
2013-07-03 01:45:00,60.5,60.5,30.20,ENE,59,0.0,0.0,100,0.00,,,0.00,WeatherCatV1.15B25,2013-07-03 05:45:00,
2013-07-03 01:50:00,60.6,60.6,30.20,ENE,59,0.0,0.0,100,0.00,,,0.00,WeatherCatV1.15B25,2013-07-03 05:50:00,
2013-07-03 01:55:00,60.6,60.6,30.19,ENE,59,0.0,0.0,100,0.00,,,0.00,WeatherCatV1.15B25,2013-07-03 05:55:00,
2013-07-03 02:00:00,60.7,60.7,30.19,ENE,59,0.0,0.0,100,0.00,,,0.00,WeatherCatV1.15B25,2013-07-03 06:00:00,
2013-07-03 02:05:00,60.6,60.6,30.19,ENE,59,0.0,0.0,100,0.00,,,0.00,WeatherCatV1.15B25,2013-07-03 06:05:00,
2013-07-03 02:10:00,60.4,60.4,30.19,ENE,59,0.0,0.0,100,0.00,,,0.00,WeatherCatV1.15B25,2013-07-03 06:10:00,
2013-07-03 02:15:00,60.5,60.5,30.19,ENE,59,0.0,0.0,100,0.00,,,0.00,WeatherCatV1.15B25,2013-07-03 06:15:00,
2013-07-03 02:16:00,60.4,60.4,30.19,ENE,59,0.0,0.0,100,0.00,,,0.00,WeatherCatV1.15B25,2013-07-03 06:16:00,
2013-07-03 02:21:00,60.4,60.4,30.19,ENE,59,0.0,0.0,100,0.00,,,0.00,WeatherCatV1.15B25,2013-07-03 06:21:00,
2013-07-03 02:26:00,60.6,60.6,30.19,ENE,59,0.0,0.0,100,0.00,,,0.00,WeatherCatV1.15B25,2013-07-03 06:26:00,
2013-07-03 02:31:00,60.6,60.6,30.19,ENE,59,0.0,0.0,100,0.00,,,0.00,WeatherCatV1.15B25,2013-07-03 06:31:00,
2013-07-03 02:36:00,60.6,60.6,30.19,ENE,59,0.0,0.0,100,0.00,,,0.00,WeatherCatV1.15B25,2013-07-03 06:36:00,
2013-07-03 02:41:00,60.7,60.7,30.20,ENE,59,0.0,0.0,100,0.00,,,0.00,WeatherCatV1.15B25,2013-07-03 06:41:00,
2013-07-03 02:46:00,60.8,60.8,30.20,ENE,59,0.0,0.0,100,0.00,,,0.00,WeatherCatV1.15B25,2013-07-03 06:46:00,
2013-07-03 02:51:00,60.8,60.8,30.19,ENE,59,0.0,0.0,100,0.00,,,0.00,WeatherCatV1.15B25,2013-07-03 06:51:00,
2013-07-03 02:56:00,60.8,60.8,30.19,ENE,59,0.0,0.0,100,0.00,,,0.00,WeatherCatV1.15B25,2013-07-03 06:56:00,
2013-07-03 03:01:00,60.8,60.8,30.19,ENE,59,0.0,0.0,100,0.00,,,0.00,WeatherCatV1.15B25,2013-07-03 07:01:00,
2013-07-03 03:06:00,60.9,60.9,30.18,ENE,59,0.0,0.0,100,0.00,,,0.00,WeatherCatV1.15B25,2013-07-03 07:06:00,
2013-07-03 03:11:00,61.0,61.0,30.19,ENE,59,0.0,0.0,100,0.00,,,0.00,WeatherCatV1.15B25,2013-07-03 07:11:00,
2013-07-03 03:15:00,61.0,61.0,30.18,ENE,59,0.0,0.0,100,0.00,,,0.00,WeatherCatV1.15B25,2013-07-03 07:15:00,
2013-07-03 03:20:00,61.0,61.0,30.19,ENE,59,0.0,0.0,100,0.00,,,0.00,WeatherCatV1.15B25,2013-07-03 07:20:00,
2013-07-03 03:25:00,61.0,61.0,30.18,ENE,59,0.0,0.0,100,0.00,,,0.00,WeatherCatV1.15B25,2013-07-03 07:25:00,
2013-07-03 03:30:00,61.0,61.0,30.19,ENE,59,0.0,0.0,100,0.00,,,0.00,WeatherCatV1.15B25,2013-07-03 07:30:00,
2013-07-03 03:35:00,61.0,61.0,30.19,ENE,59,0.0,0.0,100,0.00,,,0.00,WeatherCatV1.15B25,2013-07-03 07:35:00,
2013-07-03 03:40:00,61.0,61.0,30.18,ENE,59,0.0,0.0,100,0.00,,,0.00,WeatherCatV1.15B25,2013-07-03 07:40:00,
2013-07-03 03:45:00,61.0,61.0,30.18,ENE,59,0.0,0.0,100,0.00,,,0.00,WeatherCatV1.15B25,2013-07-03 07:45:00,
2013-07-03 03:49:00,60.9,60.9,30.18,ENE,59,0.0,0.0,100,0.00,,,0.00,WeatherCatV1.15B25,2013-07-03 07:49:00,
2013-07-03 03:54:00,61.0,61.0,30.18,ENE,59,0.0,0.0,100,0.00,,,0.00,WeatherCatV1.15B25,2013-07-03 07:54:00,
2013-07-03 03:59:00,60.9,60.9,30.17,ENE,59,0.0,0.0,100,0.00,,,0.00,WeatherCatV1.15B25,2013-07-03 07:59:00,
2013-07-03 04:01:00,60.9,60.9,30.18,ENE,59,0.0,0.0,100,0.00,,,0.00,WeatherCatV1.15B25,2013-07-03 08:01:00,
2013-07-03 04:06:00,60.9,60.9,30.18,ENE,59,1.0,3.0,100,0.00,,,0.00,WeatherCatV1.15B25,2013-07-03 08:06:00,
2013-07-03 04:11:00,61.0,61.0,30.17,ENE,59,0.0,3.0,100,0.00,,,0.00,WeatherCatV1.15B25,2013-07-03 08:11:00,
2013-07-03 04:16:00,61.0,61.0,30.17,ENE,59,0.0,0.0,100,0.00,,,0.00,WeatherCatV1.15B25,2013-07-03 08:16:00,
2013-07-03 04:17:00,61.0,61.0,30.18,ENE,59,0.0,1.0,100,0.00,,,0.00,WeatherCatV1.15B25,2013-07-03 08:17:00,
2013-07-03 04:22:00,60.9,60.9,30.17,ENE,61,2.0,4.0,100,0.00,,,0.00,WeatherCatV1.15B25,2013-07-03 08:22:00,
2013-07-03 04:27:00,61.0,61.0,30.18,ENE,62,0.0,0.0,100,0.00,,,0.00,WeatherCatV1.15B25,2013-07-03 08:27:00,
2013-07-03 04:31:00,61.0,61.0,30.18,ENE,62,1.0,2.0,100,0.00,,,0.00,WeatherCatV1.15B25,2013-07-03 08:31:00,
2013-07-03 04:36:00,60.9,60.9,30.17,ENE,62,0.0,3.0,100,0.00,,,0.00,WeatherCatV1.15B25,2013-07-03 08:36:00,
2013-07-03 04:41:00,61.0,61.0,30.18,ENE,62,0.0,0.0,100,0.00,,,0.00,WeatherCatV1.15B25,2013-07-03 08:41:00,
2013-07-03 04:46:00,61.0,61.0,30.17,ENE,62,1.0,3.0,100,0.00,,,0.00,WeatherCatV1.15B25,2013-07-03 08:46:00,
2013-07-03 04:50:00,61.0,61.0,30.17,ENE,62,0.0,1.0,100,0.00,,,0.00,WeatherCatV1.15B25,2013-07-03 08:50:00,
2013-07-03 04:55:00,61.0,61.0,30.17,ENE,62,0.0,2.0,100,0.00,,,0.00,WeatherCatV1.15B25,2013-07-03 08:55:00,
2013-07-03 05:00:00,60.9,60.9,30.17,ENE,62,0.0,1.0,100,0.00,,,0.00,WeatherCatV1.15B25,2013-07-03 09:00:00,
2013-07-03 05:05:00,61.1,61.1,30.16,ENE,62,0.0,0.0,100,0.00,,,0.00,WeatherCatV1.15B25,2013-07-03 09:05:00,
2013-07-03 05:10:00,61.1,61.1,30.17,ENE,62,0.0,0.0,100,0.00,,,0.00,WeatherCatV1.15B25,2013-07-03 09:10:00,
2013-07-03 05:15:00,61.1,61.1,30.17,ENE,62,0.0,0.0,100,0.00,,,0.00,WeatherCatV1.15B25,2013-07-03 09:15:00,
2013-07-03 05:20:00,61.1,61.1,30.18,ENE,62,0.0,0.0,100,0.00,,,0.00,WeatherCatV1.15B25,2013-07-03 09:20:00,
2013-07-03 05:25:00,61.3,61.3,30.18,ENE,62,0.0,0.0,100,0.00,,,0.00,WeatherCatV1.15B25,2013-07-03 09:25:00,
2013-07-03 05:30:00,61.3,61.3,30.18,ENE,62,0.0,0.0,100,0.00,,,0.00,WeatherCatV1.15B25,2013-07-03 09:30:00,
2013-07-03 05:35:00,61.3,61.3,30.18,ENE,62,0.0,0.0,100,0.00,,,0.00,WeatherCatV1.15B25,2013-07-03 09:35:00,
2013-07-03 05:40:00,61.2,61.2,30.18,ENE,62,0.0,0.0,100,0.00,,,0.00,WeatherCatV1.15B25,2013-07-03 09:40:00,
2013-07-03 05:45:00,61.2,61.2,30.19,ENE,62,0.0,0.0,100,0.00,,,0.00,WeatherCatV1.15B25,2013-07-03 09:45:00,
2013-07-03 05:50:00,61.3,61.3,30.20,ENE,62,0.0,0.0,100,0.00,,,0.00,WeatherCatV1.15B25,2013-07-03 09:50:00,
2013-07-03 05:55:00,61.3,61.3,30.19,ENE,62,0.0,0.0,100,0.00,,,0.00,WeatherCatV1.15B25,2013-07-03 09:55:00,
2013-07-03 06:00:00,61.3,61.3,30.19,ENE,62,0.0,0.0,100,0.00,,,0.00,WeatherCatV1.15B25,2013-07-03 10:00:00,
2013-07-03 06:06:00,61.4,61.4,30.20,ENE,62,0.0,0.0,100,0.00,,,0.00,WeatherCatV1.15B25,2013-07-03 10:06:00,
2013-07-03 06:10:00,61.4,61.4,30.19,ENE,62,0.0,0.0,100,0.00,,,0.00,WeatherCatV1.15B25,2013-07-03 10:10:00,
2013-07-03 06:11:00,61.4,61.4,30.19,ENE,62,0.0,0.0,100,0.00,,,0.00,WeatherCatV1.15B25,2013-07-03 10:11:00,
2013-07-03 06:15:00,61.6,61.6,30.19,ENE,62,0.0,0.0,100,0.00,,,0.00,WeatherCatV1.15B25,2013-07-03 10:15:00,
2013-07-03 06:20:00,61.8,61.8,30.20,ENE,62,0.0,0.0,100,0.00,,,0.00,WeatherCatV1.15B25,2013-07-03 10:20:00,
2013-07-03 06:21:00,61.7,61.7,30.19,ENE,62,0.0,0.0,100,0.00,,,0.00,WeatherCatV1.15B25,2013-07-03 10:21:00,
2013-07-03 06:26:00,61.7,61.7,30.19,ENE,62,0.0,0.0,100,0.00,,,0.00,WeatherCatV1.15B25,2013-07-03 10:26:00,
2013-07-03 06:31:00,61.9,61.9,30.20,ENE,62,0.0,0.0,100,0.00,,,0.00,WeatherCatV1.15B25,2013-07-03 10:31:00,
2013-07-03 06:36:00,62.0,62.0,30.20,ENE,62,0.0,0.0,100,0.00,,,0.00,WeatherCatV1.15B25,2013-07-03 10:36:00,
2013-07-03 06:41:00,62.1,62.1,30.20,ENE,62,0.0,0.0,100,0.00,,,0.00,WeatherCatV1.15B25,2013-07-03 10:41:00,
2013-07-03 06:46:00,62.2,62.2,30.20,ENE,62,0.0,0.0,100,0.00,,,0.00,WeatherCatV1.15B25,2013-07-03 10:46:00,
2013-07-03 06:51:00,62.2,62.2,30.19,ENE,62,0.0,1.0,100,0.00,,,0.00,WeatherCatV1.15B25,2013-07-03 10:51:00,
2013-07-03 06:55:00,62.4,62.4,30.19,ENE,62,0.0,3.0,100,0.00,,,0.00,WeatherCatV1.15B25,2013-07-03 10:55:00,
2013-07-03 06:56:00,62.3,62.3,30.19,ENE,62,0.0,3.0,100,0.00,,,0.00,WeatherCatV1.15B25,2013-07-03 10:56:00,
2013-07-03 07:01:00,62.5,62.5,30.19,ENE,62,0.0,0.0,100,0.00,,,0.00,WeatherCatV1.15B25,2013-07-03 11:01:00,
2013-07-03 07:06:00,63.1,63.1,30.19,South,182,0.0,1.0,100,0.00,,,0.00,WeatherCatV1.15B25,2013-07-03 11:06:00,
2013-07-03 07:08:00,63.3,63.3,30.19,South,183,4.0,6.0,100,0.00,,,0.00,WeatherCatV1.15B25,2013-07-03 11:08:00,
2013-07-03 07:13:00,63.7,63.7,30.19,South,185,1.0,5.0,100,0.00,,,0.00,WeatherCatV1.15B25,2013-07-03 11:13:00,
2013-07-03 07:18:00,64.3,64.3,30.20,South,185,1.0,3.0,100,0.00,,,0.00,WeatherCatV1.15B25,2013-07-03 11:18:00,
2013-07-03 07:23:00,64.4,64.4,30.19,South,185,0.0,4.0,100,0.00,,,0.00,WeatherCatV1.15B25,2013-07-03 11:23:00,
2013-07-03 07:28:00,64.8,64.8,30.20,South,185,0.0,1.0,100,0.00,,,0.00,WeatherCatV1.15B25,2013-07-03 11:28:00,
2013-07-03 07:33:00,65.1,65.1,30.19,South,186,0.0,0.0,100,0.00,,,0.00,WeatherCatV1.15B25,2013-07-03 11:33:00,
2013-07-03 07:38:00,65.5,65.5,30.19,South,186,1.0,1.0,100,0.00,,,0.00,WeatherCatV1.15B25,2013-07-03 11:38:00,
2013-07-03 07:43:00,66.0,66.0,30.19,South,185,1.0,1.0,100,0.00,,,0.00,WeatherCatV1.15B25,2013-07-03 11:43:00,
2013-07-03 07:48:00,66.5,66.5,30.20,South,185,0.0,2.0,100,0.00,,,0.00,WeatherCatV1.15B25,2013-07-03 11:48:00,
2013-07-03 07:53:00,67.0,67.0,30.20,South,185,1.0,1.0,100,0.00,,,0.00,WeatherCatV1.15B25,2013-07-03 11:53:00,
2013-07-03 07:58:00,67.7,67.7,30.19,South,185,0.0,2.0,100,0.00,,,0.00,WeatherCatV1.15B25,2013-07-03 11:58:00,
2013-07-03 08:01:00,68.0,68.0,30.20,South,185,1.0,2.0,100,0.00,,,0.00,WeatherCatV1.15B25,2013-07-03 12:01:00,
2013-07-03 08:06:00,68.8,68.8,30.19,South,185,0.0,3.0,100,0.00,,,0.00,WeatherCatV1.15B25,2013-07-03 12:06:00,
2013-07-03 08:11:00,69.6,69.6,30.19,South,185,0.0,2.0,100,0.00,,,0.00,WeatherCatV1.15B25,2013-07-03 12:11:00,
2013-07-03 08:17:00,70.3,69.7,30.19,SSW,207,0.0,0.0,98,0.00,,,0.00,WeatherCatV1.15B25,2013-07-03 12:17:00,
2013-07-03 08:22:00,71.0,70.4,30.19,South,185,3.0,4.0,98,0.00,,,0.00,WeatherCatV1.15B25,2013-07-03 12:22:00,
2013-07-03 08:27:00,71.8,71.2,30.19,SW,230,1.0,2.0,98,0.00,,,0.00,WeatherCatV1.15B25,2013-07-03 12:27:00,
2013-07-03 08:32:00,72.7,71.5,30.20,SW,228,0.0,0.0,96,0.00,,,0.00,WeatherCatV1.15B25,2013-07-03 12:32:00,
2013-07-03 08:37:00,73.7,71.9,30.19,SW,236,1.0,4.0,94,0.00,,,0.00,WeatherCatV1.15B25,2013-07-03 12:37:00,
2013-07-03 08:42:00,74.5,72.7,30.19,WSW,240,5.0,5.0,94,0.00,,,0.00,WeatherCatV1.15B25,2013-07-03 12:42:00,
2013-07-03 08:47:00,75.2,72.4,30.20,SW,227,0.0,3.0,91,0.00,,,0.00,WeatherCatV1.15B25,2013-07-03 12:47:00,
2013-07-03 08:52:00,76.3,73.5,30.19,SW,229,2.0,4.0,91,0.00,,,0.00,WeatherCatV1.15B25,2013-07-03 12:52:00,
2013-07-03 08:57:00,77.2,73.7,30.19,SW,230,3.0,5.0,89,0.00,,,0.00,WeatherCatV1.15B25,2013-07-03 12:57:00,
2013-07-03 09:02:00,77.6,74.1,30.19,SW,230,1.0,2.0,89,0.00,,,0.00,WeatherCatV1.15B25,2013-07-03 13:02:00,
2013-07-03 09:07:00,77.9,74.4,30.20,SW,227,1.0,4.0,89,0.00,,,0.00,WeatherCatV1.15B25,2013-07-03 13:07:00,
2013-07-03 09:12:00,78.8,74.6,30.19,SW,227,3.0,4.0,87,0.00,,,0.00,WeatherCatV1.15B25,2013-07-03 13:12:00,
2013-07-03 09:17:00,79.6,75.4,30.19,SW,229,1.0,4.0,87,0.00,,,0.00,WeatherCatV1.15B25,2013-07-03 13:17:00,
2013-07-03 09:22:00,80.3,76.1,30.18,SW,227,2.0,2.0,87,0.00,,,0.00,WeatherCatV1.15B25,2013-07-03 13:22:00,
2013-07-03 09:27:00,80.8,75.5,30.19,SW,228,4.0,6.0,84,0.00,,,0.00,WeatherCatV1.15B25,2013-07-03 13:27:00,
2013-07-03 09:32:00,81.4,75.7,30.19,SW,229,4.0,6.0,83,0.00,,,0.00,WeatherCatV1.15B25,2013-07-03 13:32:00,
2013-07-03 09:37:00,82.1,76.4,30.19,SW,225,4.0,6.0,83,0.00,,,0.00,WeatherCatV1.15B25,2013-07-03 13:37:00,
2013-07-03 09:42:00,82.6,76.5,30.19,SW,224,3.0,5.0,82,0.00,,,0.00,WeatherCatV1.15B25,2013-07-03 13:42:00,
2013-07-03 09:47:00,83.0,76.9,30.19,South,187,1.0,3.0,82,0.00,,,0.00,WeatherCatV1.15B25,2013-07-03 13:47:00,
2013-07-03 09:52:00,83.0,77.3,30.19,South,187,1.0,3.0,83,0.00,,,0.00,WeatherCatV1.15B25,2013-07-03 13:52:00,
2013-07-03 09:57:00,82.6,76.5,30.19,South,187,1.0,3.0,82,0.00,,,0.00,WeatherCatV1.15B25,2013-07-03 13:57:00,
2013-07-03 10:02:00,82.4,77.4,30.19,South,187,3.0,4.0,85,0.00,,,0.00,WeatherCatV1.15B25,2013-07-03 14:02:00,
2013-07-03 10:06:00,82.6,77.3,30.19,South,187,0.0,4.0,84,0.00,,,0.00,WeatherCatV1.15B25,2013-07-03 14:06:00,
2013-07-03 10:08:00,82.6,76.9,30.19,South,187,1.0,3.0,83,0.00,,,0.00,WeatherCatV1.15B25,2013-07-03 14:08:00,
2013-07-03 10:13:00,83.0,77.3,30.19,South,187,2.0,4.0,83,0.00,,,0.00,WeatherCatV1.15B25,2013-07-03 14:13:00,
2013-07-03 10:18:00,83.6,77.1,30.20,SW,231,5.0,11.0,81,0.00,,,0.00,WeatherCatV1.15B25,2013-07-03 14:18:00,
2013-07-03 10:23:00,84.0,77.5,30.19,SW,230,5.0,8.0,81,0.00,,,0.00,WeatherCatV1.15B25,2013-07-03 14:23:00,
2013-07-03 10:28:00,84.2,77.7,30.19,SW,228,3.0,6.0,81,0.00,,,0.00,WeatherCatV1.15B25,2013-07-03 14:28:00,
2013-07-03 10:29:00,84.4,77.5,30.19,WSW,249,2.0,6.0,80,0.00,,,0.00,WeatherCatV1.15B25,2013-07-03 14:29:00,
2013-07-03 10:34:00,84.4,76.4,30.20,West,259,5.0,5.0,77,0.00,,,0.00,WeatherCatV1.15B25,2013-07-03 14:34:00,
2013-07-03 10:39:00,84.0,76.0,30.19,SW,224,1.0,3.0,77,0.00,,,0.00,WeatherCatV1.15B25,2013-07-03 14:39:00,
2013-07-03 10:44:00,83.6,76.0,30.19,South,182,4.0,7.0,78,0.00,,,0.00,WeatherCatV1.15B25,2013-07-03 14:44:00,
2013-07-03 10:49:00,83.2,76.4,30.20,South,183,3.0,4.0,80,0.00,,,0.00,WeatherCatV1.15B25,2013-07-03 14:49:00,
2013-07-03 10:50:00,83.2,76.4,30.19,South,183,3.0,4.0,80,0.00,,,0.00,WeatherCatV1.15B25,2013-07-03 14:50:00,
2013-07-03 10:55:00,83.2,76.4,30.20,South,183,1.0,5.0,80,0.00,,,0.00,WeatherCatV1.15B25,2013-07-03 14:55:00,
2013-07-03 11:00:00,83.0,76.2,30.19,South,183,1.0,3.0,80,0.00,,,0.00,WeatherCatV1.15B25,2013-07-03 15:00:00,
2013-07-03 11:05:00,82.8,76.4,30.19,South,187,0.0,0.0,81,0.00,,,0.00,WeatherCatV1.15B25,2013-07-03 15:05:00,
2013-07-03 11:10:00,83.0,76.9,30.19,South,187,3.0,6.0,82,0.00,,,0.00,WeatherCatV1.15B25,2013-07-03 15:10:00,
2013-07-03 11:15:00,83.0,75.8,30.20,South,187,4.0,7.0,79,0.00,,,0.00,WeatherCatV1.15B25,2013-07-03 15:15:00,
2013-07-03 11:20:00,83.1,76.3,30.20,SW,223,0.0,6.0,80,0.00,,,0.00,WeatherCatV1.15B25,2013-07-03 15:20:00,
2013-07-03 11:25:00,83.0,75.8,30.19,SSW,206,2.0,6.0,79,0.00,,,0.00,WeatherCatV1.15B25,2013-07-03 15:25:00,
2013-07-03 11:30:00,82.8,76.0,30.19,SSW,206,3.0,4.0,80,0.00,,,0.00,WeatherCatV1.15B25,2013-07-03 15:30:00,
2013-07-03 11:35:00,83.0,76.2,30.20,SSW,206,2.0,3.0,80,0.00,,,0.00,WeatherCatV1.15B25,2013-07-03 15:35:00,
2013-07-03 11:40:00,83.4,76.6,30.19,South,176,2.0,7.0,80,0.00,,,0.00,WeatherCatV1.15B25,2013-07-03 15:40:00,
2013-07-03 11:45:00,83.6,76.8,30.20,South,170,3.0,3.0,80,0.00,,,0.00,WeatherCatV1.15B25,2013-07-03 15:45:00,
2013-07-03 11:46:00,83.6,76.8,30.20,South,170,2.0,3.0,80,0.00,,,0.00,WeatherCatV1.15B25,2013-07-03 15:46:00,
2013-07-03 11:51:00,83.6,76.0,30.20,South,173,1.0,4.0,78,0.00,,,0.00,WeatherCatV1.15B25,2013-07-03 15:51:00,
2013-07-03 11:56:00,84.0,77.1,30.19,South,174,1.0,3.0,80,0.00,,,0.00,WeatherCatV1.15B25,2013-07-03 15:56:00,
2013-07-03 12:01:00,84.2,75.8,30.19,SW,214,1.0,5.0,76,0.00,,,0.00,WeatherCatV1.15B25,2013-07-03 16:01:00,
2013-07-03 12:07:00,84.4,76.8,30.19,SSW,207,1.0,3.0,78,0.00,,,0.00,WeatherCatV1.15B25,2013-07-03 16:07:00,
2013-07-03 12:12:00,84.4,76.0,30.19,SSW,207,2.0,3.0,76,0.00,,,0.00,WeatherCatV1.15B25,2013-07-03 16:12:00,
2013-07-03 12:17:00,84.3,76.7,30.19,SSW,207,0.0,3.0,78,0.00,,,0.00,WeatherCatV1.15B25,2013-07-03 16:17:00,
2013-07-03 12:22:00,84.6,76.6,30.19,SW,230,1.0,3.0,77,0.00,,,0.00,WeatherCatV1.15B25,2013-07-03 16:22:00,
2013-07-03 12:27:00,84.9,76.5,30.19,WSW,241,3.0,5.0,76,0.00,,,0.00,WeatherCatV1.15B25,2013-07-03 16:27:00,
2013-07-03 12:32:00,84.9,76.9,30.19,SSW,206,0.0,4.0,77,0.00,,,0.00,WeatherCatV1.15B25,2013-07-03 16:32:00,
2013-07-03 12:37:00,85.3,76.8,30.18,SW,221,4.0,8.0,76,0.00,,,0.00,WeatherCatV1.15B25,2013-07-03 16:37:00,
2013-07-03 12:42:00,85.9,77.0,30.18,SSW,209,2.0,5.0,75,0.00,,,0.00,WeatherCatV1.15B25,2013-07-03 16:42:00,
2013-07-03 12:47:00,86.1,76.4,30.19,South,188,0.0,3.0,73,0.00,,,0.00,WeatherCatV1.15B25,2013-07-03 16:47:00,
2013-07-03 12:52:00,86.4,77.1,30.19,South,189,2.0,4.0,74,0.00,,,0.00,WeatherCatV1.15B25,2013-07-03 16:52:00,
2013-07-03 12:57:00,86.6,77.3,30.18,SSW,193,1.0,3.0,74,0.00,,,0.00,WeatherCatV1.15B25,2013-07-03 16:57:00,
2013-07-03 13:02:00,86.8,76.7,30.19,SW,217,4.0,4.0,72,0.00,,,0.00,WeatherCatV1.15B25,2013-07-03 17:02:00,
2013-07-03 13:07:00,86.8,76.7,30.18,SSW,207,2.0,3.0,72,0.00,,,0.00,WeatherCatV1.15B25,2013-07-03 17:07:00,
2013-07-03 13:12:00,87.4,77.2,30.18,SSW,209,5.0,8.0,72,0.00,,,0.00,WeatherCatV1.15B25,2013-07-03 17:12:00,
2013-07-03 13:17:00,87.8,77.2,30.18,South,184,2.0,7.0,71,0.00,,,0.00,WeatherCatV1.15B25,2013-07-03 17:17:00,
2013-07-03 13:22:00,87.8,76.8,30.18,South,180,2.0,4.0,70,0.00,,,0.00,WeatherCatV1.15B25,2013-07-03 17:22:00,
2013-07-03 13:27:00,87.2,77.0,30.18,South,172,2.0,3.0,72,0.00,,,0.00,WeatherCatV1.15B25,2013-07-03 17:27:00,
2013-07-03 13:32:00,87.2,76.6,30.18,SSW,200,2.0,4.0,71,0.00,,,0.00,WeatherCatV1.15B25,2013-07-03 17:32:00,
2013-07-03 13:37:00,87.4,76.8,30.17,SSW,203,3.0,8.0,71,0.00,,,0.00,WeatherCatV1.15B25,2013-07-03 17:37:00,
2013-07-03 13:41:00,87.8,77.2,30.17,South,184,3.0,8.0,71,0.00,,,0.00,WeatherCatV1.15B25,2013-07-03 17:41:00,
2013-07-03 13:46:00,88.4,77.8,30.17,SSW,192,2.0,4.0,71,0.00,,,0.00,WeatherCatV1.15B25,2013-07-03 17:46:00,
2013-07-03 13:51:00,88.6,76.7,30.17,SSW,196,1.0,3.0,68,0.00,,,0.00,WeatherCatV1.15B25,2013-07-03 17:51:00,
2013-07-03 13:56:00,88.2,77.1,30.18,SSW,203,2.0,6.0,70,0.00,,,0.00,WeatherCatV1.15B25,2013-07-03 17:56:00,
2013-07-03 14:01:00,87.8,77.2,30.17,SSW,203,1.0,3.0,71,0.00,,,0.00,WeatherCatV1.15B25,2013-07-03 18:01:00,
2013-07-03 14:06:00,87.2,76.2,30.17,SSW,203,2.0,3.0,70,0.00,,,0.00,WeatherCatV1.15B25,2013-07-03 18:06:00,
2013-07-03 14:11:00,87.0,76.8,30.17,SSW,211,4.0,5.0,72,0.00,,,0.00,WeatherCatV1.15B25,2013-07-03 18:11:00,
2013-07-03 14:16:00,87.6,77.4,30.17,SSW,207,2.0,6.0,72,0.00,,,0.00,WeatherCatV1.15B25,2013-07-03 18:16:00,
2013-07-03 14:21:00,88.2,77.1,30.16,SSW,213,2.0,5.0,70,0.00,,,0.00,WeatherCatV1.15B25,2013-07-03 18:21:00,
2013-07-03 14:26:00,88.2,76.7,30.16,SW,221,0.0,5.0,69,0.00,,,0.00,WeatherCatV1.15B25,2013-07-03 18:26:00,
2013-07-03 14:31:00,88.2,76.7,30.17,SSW,198,3.0,7.0,69,0.00,,,0.00,WeatherCatV1.15B25,2013-07-03 18:31:00,
2013-07-03 14:36:00,87.8,76.8,30.17,SSW,196,1.0,5.0,70,0.00,,,0.00,WeatherCatV1.15B25,2013-07-03 18:36:00,
2013-07-03 14:41:00,87.4,77.2,30.17,SSW,196,2.0,3.0,72,0.00,,,0.00,WeatherCatV1.15B25,2013-07-03 18:41:00,
2013-07-03 14:46:00,87.2,77.5,30.17,SSW,196,3.0,6.0,73,0.00,,,0.00,WeatherCatV1.15B25,2013-07-03 18:46:00,
2013-07-03 14:51:00,87.6,77.8,30.16,SSW,196,1.0,3.0,73,0.00,,,0.00,WeatherCatV1.15B25,2013-07-03 18:51:00,
2013-07-03 14:56:00,88.2,77.6,30.16,SSW,194,3.0,6.0,71,0.00,,,0.00,WeatherCatV1.15B25,2013-07-03 18:56:00,
2013-07-03 15:01:00,88.4,77.8,30.16,SSW,200,3.0,4.0,71,0.00,,,0.00,WeatherCatV1.15B25,2013-07-03 19:01:00,
2013-07-03 15:06:00,88.6,78.0,30.16,SSW,193,2.0,3.0,71,0.00,,,0.00,WeatherCatV1.15B25,2013-07-03 19:06:00,
2013-07-03 15:11:00,88.2,76.7,30.15,SSW,193,1.0,3.0,69,0.00,,,0.00,WeatherCatV1.15B25,2013-07-03 19:11:00,
2013-07-03 15:16:00,88.0,77.8,30.15,SSW,193,1.0,3.0,72,0.00,,,0.00,WeatherCatV1.15B25,2013-07-03 19:16:00,
2013-07-03 15:21:00,88.0,77.4,30.15,SSW,193,1.0,5.0,71,0.00,,,0.00,WeatherCatV1.15B25,2013-07-03 19:21:00,
2013-07-03 15:26:00,87.6,77.0,30.15,SSW,193,1.0,4.0,71,0.00,,,0.00,WeatherCatV1.15B25,2013-07-03 19:26:00,
2013-07-03 15:31:00,87.6,77.4,30.15,SSW,193,1.0,7.0,72,0.00,,,0.00,WeatherCatV1.15B25,2013-07-03 19:31:00,
2013-07-03 15:36:00,87.6,76.6,30.14,SSW,209,0.0,4.0,70,0.00,,,0.00,WeatherCatV1.15B25,2013-07-03 19:36:00,
2013-07-03 15:37:00,87.6,77.4,30.15,SSW,209,5.0,5.0,72,0.00,,,0.00,WeatherCatV1.15B25,2013-07-03 19:37:00,
2013-07-03 15:42:00,87.8,76.8,30.14,SSW,212,2.0,5.0,70,0.00,,,0.00,WeatherCatV1.15B25,2013-07-03 19:42:00,
2013-07-03 15:47:00,87.8,76.3,30.14,SSW,197,5.0,6.0,69,0.00,,,0.00,WeatherCatV1.15B25,2013-07-03 19:47:00,
2013-07-03 15:52:00,87.6,77.0,30.14,SSW,197,0.0,5.0,71,0.00,,,0.00,WeatherCatV1.15B25,2013-07-03 19:52:00,
2013-07-03 15:57:00,87.6,77.0,30.14,SSW,197,1.0,3.0,71,0.00,,,0.00,WeatherCatV1.15B25,2013-07-03 19:57:00,
2013-07-03 16:02:00,87.2,77.0,30.14,SSW,199,3.0,5.0,72,0.00,,,0.00,WeatherCatV1.15B25,2013-07-03 20:02:00,
2013-07-03 16:07:00,87.2,77.0,30.14,SSW,199,0.0,5.0,72,0.00,,,0.00,WeatherCatV1.15B25,2013-07-03 20:07:00,
2013-07-03 16:12:00,87.2,77.0,30.14,SSW,199,3.0,3.0,72,0.00,,,0.00,WeatherCatV1.15B25,2013-07-03 20:12:00,
2013-07-03 16:17:00,87.2,77.0,30.14,SSW,199,2.0,3.0,72,0.00,,,0.00,WeatherCatV1.15B25,2013-07-03 20:17:00,
2013-07-03 16:22:00,87.0,77.3,30.14,SSW,199,0.0,3.0,73,0.00,,,0.00,WeatherCatV1.15B25,2013-07-03 20:22:00,
2013-07-03 16:27:00,86.8,77.9,30.14,SSW,198,0.0,0.0,75,0.00,,,0.00,WeatherCatV1.15B25,2013-07-03 20:27:00,
2013-07-03 16:32:00,86.5,78.0,30.14,SSW,198,1.0,3.0,76,0.00,,,0.00,WeatherCatV1.15B25,2013-07-03 20:32:00,
2013-07-03 16:37:00,86.6,78.1,30.14,SSW,198,0.0,2.0,76,0.00,,,0.00,WeatherCatV1.15B25,2013-07-03 20:37:00,
2013-07-03 16:42:00,86.4,77.5,30.14,SSW,198,1.0,3.0,75,0.00,,,0.00,WeatherCatV1.15B25,2013-07-03 20:42:00,
2013-07-03 16:47:00,86.4,77.5,30.14,SSW,198,3.0,3.0,75,0.00,,,0.00,WeatherCatV1.15B25,2013-07-03 20:47:00,
2013-07-03 16:52:00,86.1,76.4,30.14,SSW,198,2.0,7.0,73,0.00,,,0.00,WeatherCatV1.15B25,2013-07-03 20:52:00,
2013-07-03 16:57:00,85.9,75.8,30.14,SSW,198,1.0,3.0,72,0.00,,,0.00,WeatherCatV1.15B25,2013-07-03 20:57:00,
2013-07-03 17:02:00,85.9,76.6,30.14,SSW,198,1.0,4.0,74,0.00,,,0.00,WeatherCatV1.15B25,2013-07-03 21:02:00,
2013-07-03 17:07:00,85.9,76.6,30.13,SSW,198,3.0,3.0,74,0.00,,,0.00,WeatherCatV1.15B25,2013-07-03 21:07:00,
2013-07-03 17:12:00,85.9,77.0,30.13,SSW,198,1.0,3.0,75,0.00,,,0.00,WeatherCatV1.15B25,2013-07-03 21:12:00,
2013-07-03 17:17:00,85.9,77.0,30.13,SSW,198,0.0,3.0,75,0.00,,,0.00,WeatherCatV1.15B25,2013-07-03 21:17:00,
2013-07-03 17:22:00,85.9,77.4,30.14,SSW,198,0.0,0.0,76,0.00,,,0.00,WeatherCatV1.15B25,2013-07-03 21:22:00,
2013-07-03 17:27:00,85.7,76.8,30.13,SSW,198,1.0,2.0,75,0.00,,,0.00,WeatherCatV1.15B25,2013-07-03 21:27:00,
2013-07-03 17:32:00,85.5,77.0,30.14,SSW,198,1.0,3.0,76,0.00,,,0.00,WeatherCatV1.15B25,2013-07-03 21:32:00,
2013-07-03 17:37:00,85.3,76.8,30.13,SSW,198,0.0,2.0,76,0.00,,,0.00,WeatherCatV1.15B25,2013-07-03 21:37:00,
2013-07-03 17:42:00,85.3,76.8,30.13,SSW,198,2.0,3.0,76,0.00,,,0.00,WeatherCatV1.15B25,2013-07-03 21:42:00,
2013-07-03 17:47:00,85.3,76.8,30.14,SSW,198,2.0,3.0,76,0.00,,,0.00,WeatherCatV1.15B25,2013-07-03 21:47:00,
2013-07-03 17:52:00,85.3,76.8,30.13,SSW,198,3.0,3.0,76,0.00,,,0.00,WeatherCatV1.15B25,2013-07-03 21:52:00,
2013-07-03 17:57:00,85.1,77.1,30.13,SSW,198,3.0,5.0,77,0.00,,,0.00,WeatherCatV1.15B25,2013-07-03 21:57:00,
2013-07-03 18:02:00,84.9,76.5,30.13,SSW,198,0.0,5.0,76,0.00,,,0.00,WeatherCatV1.15B25,2013-07-03 22:02:00,
2013-07-03 18:07:00,84.7,76.3,30.14,SSW,198,4.0,6.0,76,0.00,,,0.00,WeatherCatV1.15B25,2013-07-03 22:07:00,
2013-07-03 18:12:00,84.7,76.3,30.13,SSW,198,1.0,6.0,76,0.00,,,0.00,WeatherCatV1.15B25,2013-07-03 22:12:00,
2013-07-03 18:17:00,84.6,75.8,30.13,SSW,198,3.0,5.0,75,0.00,,,0.00,WeatherCatV1.15B25,2013-07-03 22:17:00,
2013-07-03 18:22:00,84.5,75.7,30.12,SSW,198,1.0,7.0,75,0.00,,,0.00,WeatherCatV1.15B25,2013-07-03 22:22:00,
2013-07-03 18:27:00,84.4,76.0,30.13,SSW,198,3.0,6.0,76,0.00,,,0.00,WeatherCatV1.15B25,2013-07-03 22:27:00,
2013-07-03 18:32:00,84.2,75.8,30.13,SSW,195,2.0,4.0,76,0.00,,,0.00,WeatherCatV1.15B25,2013-07-03 22:32:00,
2013-07-03 18:37:00,84.0,76.0,30.13,SSW,195,1.0,4.0,77,0.00,,,0.00,WeatherCatV1.15B25,2013-07-03 22:37:00,
2013-07-03 18:42:00,83.8,75.8,30.13,SSW,195,3.0,6.0,77,0.00,,,0.00,WeatherCatV1.15B25,2013-07-03 22:42:00,
2013-07-03 18:47:00,83.7,76.1,30.13,SSW,195,0.0,4.0,78,0.00,,,0.00,WeatherCatV1.15B25,2013-07-03 22:47:00,
2013-07-03 18:52:00,83.8,76.6,30.13,SSW,195,0.0,4.0,79,0.00,,,0.00,WeatherCatV1.15B25,2013-07-03 22:52:00,
2013-07-03 18:57:00,83.8,76.6,30.13,SSW,195,1.0,5.0,79,0.00,,,0.00,WeatherCatV1.15B25,2013-07-03 22:57:00,
2013-07-03 19:02:00,83.8,76.6,30.13,SSW,195,3.0,5.0,79,0.00,,,0.00,WeatherCatV1.15B25,2013-07-03 23:02:00,
2013-07-03 19:07:00,83.8,76.6,30.13,SSW,195,1.0,2.0,79,0.00,,,0.00,WeatherCatV1.15B25,2013-07-03 23:07:00,
2013-07-03 19:12:00,83.8,76.9,30.12,SSW,195,0.0,0.0,80,0.00,,,0.00,WeatherCatV1.15B25,2013-07-03 23:12:00,
2013-07-03 19:17:00,83.6,76.8,30.12,SSW,195,1.0,4.0,80,0.00,,,0.00,WeatherCatV1.15B25,2013-07-03 23:17:00,
2013-07-03 19:18:00,83.6,76.8,30.12,SSW,195,0.0,4.0,80,0.00,,,0.00,WeatherCatV1.15B25,2013-07-03 23:18:00,
2013-07-03 19:23:00,83.2,76.7,30.13,SSW,195,0.0,0.0,81,0.00,,,0.00,WeatherCatV1.15B25,2013-07-03 23:23:00,
2013-07-03 19:28:00,83.0,76.2,30.12,SSW,195,0.0,4.0,80,0.00,,,0.00,WeatherCatV1.15B25,2013-07-03 23:28:00,
2013-07-03 19:31:00,83.0,76.5,30.13,SSW,195,0.0,1.0,81,0.00,,,0.00,WeatherCatV1.15B25,2013-07-03 23:31:00,
2013-07-03 19:36:00,82.8,76.4,30.13,SSW,195,0.0,2.0,81,0.00,,,0.00,WeatherCatV1.15B25,2013-07-03 23:36:00,
2013-07-03 19:41:00,82.4,76.3,30.13,SSW,195,1.0,2.0,82,0.00,,,0.00,WeatherCatV1.15B25,2013-07-03 23:41:00,
2013-07-03 19:46:00,82.2,76.1,30.13,SSW,195,0.0,0.0,82,0.00,,,0.00,WeatherCatV1.15B25,2013-07-03 23:46:00,
2013-07-03 19:51:00,81.8,75.7,30.13,SSW,195,0.0,2.0,82,0.00,,,0.00,WeatherCatV1.15B25,2013-07-03 23:51:00,
2013-07-03 19:56:00,81.6,76.3,30.13,SSW,195,0.0,0.0,84,0.00,,,0.00,WeatherCatV1.15B25,2013-07-03 23:56:00,
2013-07-03 20:01:00,81.4,76.4,30.13,SSW,195,0.0,0.0,85,0.00,,,0.00,WeatherCatV1.15B25,2013-07-04 00:01:00,
2013-07-03 20:06:00,81.1,76.1,30.14,SSW,195,0.0,2.0,85,0.00,,,0.00,WeatherCatV1.15B25,2013-07-04 00:06:00,
2013-07-03 20:11:00,80.7,75.8,30.14,SSW,195,0.0,1.0,85,0.00,,,0.00,WeatherCatV1.15B25,2013-07-04 00:11:00,
2013-07-03 20:16:00,80.5,75.9,30.15,SSW,195,0.0,0.0,86,0.00,,,0.00,WeatherCatV1.15B25,2013-07-04 00:16:00,
2013-07-03 20:21:00,80.1,75.9,30.15,SSW,196,1.0,3.0,87,0.00,,,0.00,WeatherCatV1.15B25,2013-07-04 00:21:00,
2013-07-03 20:26:00,79.9,75.7,30.15,SSW,196,2.0,2.0,87,0.00,,,0.00,WeatherCatV1.15B25,2013-07-04 00:26:00,
2013-07-03 20:31:00,79.8,75.9,30.15,SSW,196,0.0,2.0,88,0.00,,,0.00,WeatherCatV1.15B25,2013-07-04 00:31:00,
2013-07-03 20:36:00,79.6,75.7,30.15,SSW,196,0.0,1.0,88,0.00,,,0.00,WeatherCatV1.15B25,2013-07-04 00:36:00,
2013-07-03 20:41:00,79.2,75.7,30.16,SSW,196,0.0,0.0,89,0.00,,,0.00,WeatherCatV1.15B25,2013-07-04 00:41:00,
2013-07-03 20:46:00,79.0,75.8,30.16,SSW,196,0.0,0.0,90,0.00,,,0.00,WeatherCatV1.15B25,2013-07-04 00:46:00,
2013-07-03 20:51:00,78.8,75.9,30.15,SSW,197,0.0,1.0,91,0.00,,,0.00,WeatherCatV1.15B25,2013-07-04 00:51:00,
2013-07-03 20:56:00,78.5,75.6,30.16,SSW,202,1.0,2.0,91,0.00,,,0.00,WeatherCatV1.15B25,2013-07-04 00:56:00,
2013-07-03 21:01:00,78.1,75.6,30.16,SW,224,0.0,0.0,92,0.00,,,0.00,WeatherCatV1.15B25,2013-07-04 01:01:00,
2013-07-03 21:06:00,77.9,75.4,30.16,SSW,199,0.0,0.0,92,0.00,,,0.00,WeatherCatV1.15B25,2013-07-04 01:06:00,
2013-07-03 21:11:00,77.9,75.7,30.16,SSW,196,0.0,2.0,93,0.00,,,0.00,WeatherCatV1.15B25,2013-07-04 01:11:00,
2013-07-03 21:16:00,77.8,75.6,30.17,SSW,196,0.0,2.0,93,0.00,,,0.00,WeatherCatV1.15B25,2013-07-04 01:16:00,
2013-07-03 21:18:00,77.7,75.2,30.16,SSW,196,0.0,0.0,92,0.00,,,0.00,WeatherCatV1.15B25,2013-07-04 01:18:00,
2013-07-03 21:24:00,77.7,75.5,30.16,SSW,196,0.0,2.0,93,0.00,,,0.00,WeatherCatV1.15B25,2013-07-04 01:24:00,
2013-07-03 21:29:00,77.7,75.8,30.17,SSW,196,0.0,2.0,94,0.00,,,0.00,WeatherCatV1.15B25,2013-07-04 01:29:00,
2013-07-03 21:31:00,77.7,75.5,30.16,SSW,196,0.0,0.0,93,0.00,,,0.00,WeatherCatV1.15B25,2013-07-04 01:31:00,
2013-07-03 21:36:00,77.6,75.7,30.17,SSW,196,1.0,4.0,94,0.00,,,0.00,WeatherCatV1.15B25,2013-07-04 01:36:00,
2013-07-03 21:41:00,77.6,75.7,30.17,SSW,196,0.0,3.0,94,0.00,,,0.00,WeatherCatV1.15B25,2013-07-04 01:41:00,
2013-07-03 21:46:00,77.6,75.7,30.17,SSW,196,0.0,0.0,94,0.00,,,0.00,WeatherCatV1.15B25,2013-07-04 01:46:00,
2013-07-03 21:51:00,77.6,75.4,30.17,SSW,196,0.0,2.0,93,0.00,,,0.00,WeatherCatV1.15B25,2013-07-04 01:51:00,
2013-07-03 21:56:00,77.4,75.5,30.17,SSW,196,0.0,2.0,94,0.00,,,0.00,WeatherCatV1.15B25,2013-07-04 01:56:00,
2013-07-03 22:01:00,77.4,75.5,30.17,SSW,196,0.0,0.0,94,0.00,,,0.00,WeatherCatV1.15B25,2013-07-04 02:01:00,
2013-07-03 22:06:00,77.4,75.5,30.17,SSW,196,0.0,0.0,94,0.00,,,0.00,WeatherCatV1.15B25,2013-07-04 02:06:00,
2013-07-03 22:11:00,77.2,75.3,30.17,SSW,196,0.0,0.0,94,0.00,,,0.00,WeatherCatV1.15B25,2013-07-04 02:11:00,
2013-07-03 22:16:00,77.2,75.3,30.18,SSW,196,0.0,1.0,94,0.00,,,0.00,WeatherCatV1.15B25,2013-07-04 02:16:00,
2013-07-03 22:21:00,77.0,75.5,30.17,SSW,196,0.0,0.0,95,0.00,,,0.00,WeatherCatV1.15B25,2013-07-04 02:21:00,
2013-07-03 22:26:00,76.9,75.0,30.17,SSW,196,0.0,0.0,94,0.00,,,0.00,WeatherCatV1.15B25,2013-07-04 02:26:00,
2013-07-03 22:31:00,76.7,75.2,30.17,SSW,213,0.0,0.0,95,0.00,,,0.00,WeatherCatV1.15B25,2013-07-04 02:31:00,
2013-07-03 22:36:00,76.5,75.3,30.17,SSW,206,0.0,0.0,96,0.00,,,0.00,WeatherCatV1.15B25,2013-07-04 02:36:00,
2013-07-03 22:41:00,76.3,75.1,30.17,SSW,200,0.0,0.0,96,0.00,,,0.00,WeatherCatV1.15B25,2013-07-04 02:41:00,
2013-07-03 22:46:00,76.1,74.9,30.17,SSW,198,0.0,1.0,96,0.00,,,0.00,WeatherCatV1.15B25,2013-07-04 02:46:00,
2013-07-03 22:51:00,76.0,75.4,30.17,SSW,198,0.0,0.0,98,0.00,,,0.00,WeatherCatV1.15B25,2013-07-04 02:51:00,
2013-07-03 22:56:00,75.8,75.2,30.17,SSW,197,0.0,0.0,98,0.00,,,0.00,WeatherCatV1.15B25,2013-07-04 02:56:00,
2013-07-03 23:01:00,75.6,75.0,30.17,SSW,197,0.0,0.0,98,0.00,,,0.00,WeatherCatV1.15B25,2013-07-04 03:01:00,
2013-07-03 23:05:00,75.6,75.0,30.17,SSW,197,0.0,0.0,98,0.00,,,0.00,WeatherCatV1.15B25,2013-07-04 03:05:00,
2013-07-03 23:10:00,75.4,74.8,30.17,SSW,197,0.0,0.0,98,0.00,,,0.00,WeatherCatV1.15B25,2013-07-04 03:10:00,
2013-07-03 23:11:00,75.5,74.9,30.17,SSW,197,0.0,0.0,98,0.00,,,0.00,WeatherCatV1.15B25,2013-07-04 03:11:00,
2013-07-03 23:16:00,75.3,75.0,30.17,SSW,197,0.0,0.0,99,0.00,,,0.00,WeatherCatV1.15B25,2013-07-04 03:16:00,
2013-07-03 23:21:00,75.2,74.6,30.17,SSW,197,0.0,0.0,98,0.00,,,0.00,WeatherCatV1.15B25,2013-07-04 03:21:00,
2013-07-03 23:26:00,75.1,74.2,30.17,SSW,197,0.0,0.0,97,0.00,,,0.00,WeatherCatV1.15B25,2013-07-04 03:26:00,
2013-07-03 23:31:00,74.9,74.6,30.18,SSW,209,0.0,0.0,99,0.00,,,0.00,WeatherCatV1.15B25,2013-07-04 03:31:00,
2013-07-03 23:36:00,74.7,74.1,30.18,SSW,205,0.0,0.0,98,0.00,,,0.00,WeatherCatV1.15B25,2013-07-04 03:36:00,
2013-07-03 23:41:00,74.6,74.3,30.17,SSW,206,0.0,0.0,99,0.00,,,0.00,WeatherCatV1.15B25,2013-07-04 03:41:00,
2013-07-03 23:46:00,74.4,74.1,30.17,SSW,204,0.0,0.0,99,0.00,,,0.00,WeatherCatV1.15B25,2013-07-04 03:46:00,
2013-07-03 23:51:00,74.2,73.9,30.18,SSW,204,0.0,0.0,99,0.00,,,0.00,WeatherCatV1.15B25,2013-07-04 03:51:00,
2013-07-03 23:56:00,74.2,73.9,30.18,SSW,207,0.0,0.0,99,0.00,,,0.00,WeatherCatV1.15B25,2013-07-04 03:56:00,